FAGG

George Airport

George, South Africa
METAR FAGG 162300Z AUTO VRB02KT 6000 -RA SCT002/// 20/19 Q1013
Observed Flight Rules
Dec-16 @ 23:00 UTC (18 minutes ago) Marginal Visual Flight Rules
Wind Visibility Clouds Conditions
Variable at 2 knots 6,003 meters
  • Scattered at 200' AGL
  • Light Rain
Temperatures Readings
Current 20°C / 68°F
Dewpoint 19°C / 66°F
Humidity 94%
Altimeter 29.91" Hg
Pressure 1013 hPa
Elevation 193
METAR FAGG 162300Z AUTO VRB02KT 6000 -RA SCT002/// 20/19 Q1013
Observed Flight Rules
Dec-16 @ 23:00 UTC
(18 minutes ago)
MVFR
Wind Visibility
Variable at 2 knots 6,003 meters
Clouds
  • Scattered at 200' AGL
Conditions
  • Light Rain
Temperature Dewpoint
20°C / 68°F 19°C / 66°F
Humidity Altimeter Pressure
94% 29.91" Hg 1013 hPa